Time;durP1;ratioP1;P1;durP2;ratioP2;P2;SDS_P1;SDS_P2;PMS_P1;PMS_P2;Temp;Humidity;BMP_temperature;BMP_pressure;BME280_temperature;BME280_humidity;BME280_pressure;Samples;Min_cycle;Max_cycle;Signal;HPM_P1;HPM_P2
2021/12/16 00:04:03;;;;;;;15.17;8.03;;;7.40;99.90;;;;;;4097655;29;21020;-79
2021/12/16 00:08:35;;;;;;;14.17;7.70;;;7.40;99.90;;;;;;4066031;29;20510;-79
2021/12/16 00:10:43;;;;;;;15.47;8.03;;;7.40;99.90;;;;;;4101612;29;20983;-79
2021/12/16 00:28:57;;;;;;;15.53;8.17;;;7.40;99.90;;;;;;4083628;29;20489;-79
2021/12/16 00:32:21;;;;;;;14.33;8.23;;;7.40;99.90;;;;;;4211515;28;20586;-80
2021/12/16 00:34:27;;;;;;;15.10;8.67;;;7.40;99.90;;;;;;4193167;28;20523;-80
2021/12/16 00:36:33;;;;;;;19.47;8.97;;;7.40;99.90;;;;;;4175329;28;20499;-80
2021/12/16 00:38:36;;;;;;;15.70;8.47;;;7.40;99.90;;;;;;4160058;28;20525;-80
2021/12/16 00:40:41;;;;;;;17.50;9.13;;;7.40;99.90;;;;;;4169730;28;20859;-80
2021/12/16 00:42:49;;;;;;;19.77;9.73;;;7.40;99.90;;;;;;4192157;22;20501;-79
2021/12/16 00:45:20;;;;;;;20.00;10.43;;;7.30;99.90;;;;;;4154001;28;20482;-78
2021/12/16 00:47:35;;;;;;;15.97;8.63;;;7.40;99.90;;;;;;4159231;28;20486;-82
2021/12/16 00:49:41;;;;;;;15.87;9.17;;;7.40;99.90;;;;;;4151092;28;20471;-78
2021/12/16 00:54:11;;;;;;;17.63;8.90;;;7.40;99.90;;;;;;4158101;28;20566;-80
2021/12/16 00:56:15;;;;;;;19.77;10.30;;;7.30;99.90;;;;;;4150736;28;20469;-79
2021/12/16 00:58:22;;;;;;;19.80;10.27;;;7.40;99.90;;;;;;4156166;28;20471;-80
2021/12/16 01:00:27;;;;;;;19.00;9.93;;;7.40;99.90;;;;;;4147138;28;20547;-80
2021/12/16 01:02:53;;;;;;;19.50;9.73;;;7.40;99.90;;;;;;4150930;28;20529;-80
2021/12/16 01:05:14;;;;;;;17.73;9.13;;;7.40;99.90;;;;;;4156205;28;20461;-80
2021/12/16 01:33:23;;;;;;;18.60;9.47;;;7.40;99.90;;;;;;4139922;28;20484;-80
2021/12/16 01:33:43;;;;;;;18.70;10.33;;;7.50;99.90;;;;;;4153321;28;21024;-81
2021/12/16 01:35:54;;;;;;;18.40;10.23;;;7.50;99.90;;;;;;4149453;28;20536;-80
2021/12/16 01:38:26;;;;;;;23.60;11.13;;;7.50;99.90;;;;;;4152664;28;20992;-81
2021/12/16 01:40:53;;;;;;;20.37;10.87;;;7.50;99.90;;;;;;4165469;28;20463;-81
2021/12/16 01:48:20;;;;;;;22.97;11.00;;;7.50;99.90;;;;;;4150275;28;20465;-81
2021/12/16 01:50:27;;;;;;;22.23;10.93;;;7.50;99.90;;;;;;4147623;28;20477;-80
2021/12/16 01:53:01;;;;;;;24.97;12.43;;;7.50;99.90;;;;;;4145075;28;20447;-80
2021/12/16 01:55:10;;;;;;;21.07;10.53;;;7.50;99.90;;;;;;4150653;28;20567;-80
2021/12/16 01:57:19;;;;;;;21.73;11.33;;;7.50;99.90;;;;;;4154071;28;20482;-82
2021/12/16 01:59:23;;;;;;;23.30;12.03;;;7.50;99.90;;;;;;4149450;28;21005;-81
2021/12/16 02:01:31;;;;;;;19.00;10.53;;;7.60;99.90;;;;;;4153062;28;20541;-81
2021/12/16 02:03:42;;;;;;;20.17;10.43;;;7.50;99.90;;;;;;4153800;28;20484;-80
2021/12/16 02:05:58;;;;;;;22.47;11.97;;;7.60;99.90;;;;;;4153021;28;20465;-81
2021/12/16 02:08:23;;;;;;;22.20;11.73;;;7.50;99.90;;;;;;4142747;28;20868;-81
2021/12/16 02:10:32;;;;;;;21.50;11.07;;;7.60;99.90;;;;;;4145421;28;20859;-80
2021/12/16 02:12:51;;;;;;;20.43;11.07;;;7.60;99.90;;;;;;4151817;28;20937;-80
2021/12/16 02:29:10;;;;;;;25.73;12.47;;;7.60;99.90;;;;;;4155076;28;20477;-79
2021/12/16 02:31:24;;;;;;;27.20;13.40;;;7.50;99.90;;;;;;4142750;28;20498;-80
2021/12/16 02:34:04;;;;;;;25.87;13.70;;;7.50;99.90;;;;;;4142464;28;21029;-81
2021/12/16 02:36:24;;;;;;;27.40;12.83;;;7.50;99.90;;;;;;4141994;28;20454;-79
2021/12/16 02:38:31;;;;;;;25.00;13.20;;;7.50;99.90;;;;;;4152514;28;20530;-80
2021/12/16 02:40:34;;;;;;;28.87;13.90;;;7.50;99.90;;;;;;4164682;28;20473;-80
2021/12/16 02:42:40;;;;;;;29.27;14.03;;;7.50;99.90;;;;;;4160517;28;20477;-79
2021/12/16 02:48:28;;;;;;;26.77;13.53;;;7.50;99.90;;;;;;4153725;28;20481;-81
2021/12/16 02:49:25;;;;;;;26.17;13.43;;;7.50;99.90;;;;;;4152662;28;20952;-80
2021/12/16 02:51:29;;;;;;;26.00;13.13;;;7.50;99.90;;;;;;4152102;28;20489;-81
2021/12/16 02:53:33;;;;;;;30.77;14.60;;;7.50;99.90;;;;;;4143889;28;20751;-81
2021/12/16 02:55:35;;;;;;;30.63;14.77;;;7.50;99.90;;;;;;4152811;28;20461;-81
2021/12/16 02:57:45;;;;;;;29.97;14.80;;;7.50;99.90;;;;;;4153024;28;20898;-80
2021/12/16 02:59:49;;;;;;;29.00;13.83;;;7.50;99.90;;;;;;4143893;28;20477;-81
2021/12/16 03:01:54;;;;;;;27.97;14.13;;;7.50;99.90;;;;;;4143280;28;20955;-81
2021/12/16 03:03:58;;;;;;;27.90;13.60;;;7.50;99.90;;;;;;4137510;28;20498;-81
2021/12/16 03:06:02;;;;;;;27.37;12.90;;;7.50;99.90;;;;;;4143220;28;20470;-80
2021/12/16 03:08:05;;;;;;;29.77;14.37;;;7.50;99.90;;;;;;4141888;28;20465;-81
2021/12/16 03:12:45;;;;;;;28.37;13.63;;;7.40;99.90;;;;;;4129659;28;20493;-81
2021/12/16 03:14:53;;;;;;;27.40;13.30;;;7.40;99.90;;;;;;4137251;28;20474;-80
2021/12/16 03:17:09;;;;;;;28.03;13.33;;;7.40;99.90;;;;;;4137555;28;20998;-80
2021/12/16 03:19:17;;;;;;;31.60;14.77;;;7.40;99.90;;;;;;4145976;28;20459;-81
2021/12/16 03:21:22;;;;;;;28.93;14.67;;;7.40;99.90;;;;;;4152641;28;20480;-80
2021/12/16 03:23:40;;;;;;;27.97;13.50;;;7.40;99.90;;;;;;4151728;28;20500;-80
2021/12/16 03:25:56;;;;;;;30.10;15.20;;;7.50;99.90;;;;;;4145211;28;20970;-80
2021/12/16 03:32:50;;;;;;;25.83;13.10;;;7.40;99.90;;;;;;4151743;28;21024;-80
2021/12/16 03:35:00;;;;;;;28.70;14.57;;;7.40;99.90;;;;;;4151842;28;20973;-81
2021/12/16 03:37:18;;;;;;;31.13;14.47;;;7.50;99.90;;;;;;4137765;28;20452;-82
2021/12/16 03:39:20;;;;;;;32.17;14.80;;;7.40;99.90;;;;;;4148996;28;20476;-81
2021/12/16 03:41:24;;;;;;;27.83;14.53;;;7.40;99.90;;;;;;4152805;28;20470;-81
2021/12/16 03:43:28;;;;;;;28.20;13.93;;;7.40;99.90;;;;;;4153358;28;20497;-80
2021/12/16 03:47:57;;;;;;;33.67;15.97;;;7.40;99.90;;;;;;4148607;28;20463;-80
2021/12/16 03:50:00;;;;;;;33.87;15.47;;;7.40;99.90;;;;;;4136624;28;20461;-81
2021/12/16 03:52:07;;;;;;;29.87;14.60;;;7.40;99.90;;;;;;4135681;28;20499;-81
2021/12/16 03:54:11;;;;;;;31.03;14.80;;;7.40;99.90;;;;;;4139834;28;20528;-80
2021/12/16 03:56:13;;;;;;;33.43;15.43;;;7.40;99.90;;;;;;4145007;28;20454;-81
2021/12/16 03:58:18;;;;;;;31.63;14.67;;;7.40;99.90;;;;;;4140011;28;21049;-80
2021/12/16 04:00:26;;;;;;;34.73;15.53;;;7.40;99.90;;;;;;4142193;28;21042;-80
2021/12/16 04:02:34;;;;;;;31.93;14.90;;;7.40;99.90;;;;;;4151951;28;20486;-81
2021/12/16 04:04:36;;;;;;;33.47;16.27;;;7.40;99.90;;;;;;4152504;28;20476;-81
2021/12/16 04:06:39;;;;;;;37.27;15.83;;;7.40;99.90;;;;;;4147275;28;20465;-81
2021/12/16 04:08:41;;;;;;;30.67;15.90;;;7.40;99.90;;;;;;4141537;28;20505;-81
2021/12/16 04:10:49;;;;;;;30.40;15.10;;;7.40;99.90;;;;;;4153321;28;20460;-81
2021/12/16 04:12:52;;;;;;;31.73;15.30;;;7.50;99.90;;;;;;4154958;28;20539;-80
2021/12/16 04:14:58;;;;;;;32.60;15.33;;;7.40;99.90;;;;;;4151762;28;20516;-80
2021/12/16 04:17:02;;;;;;;35.37;16.30;;;7.40;99.90;;;;;;4147331;28;20833;-81
2021/12/16 04:19:09;;;;;;;34.50;15.27;;;7.40;99.90;;;;;;4149841;28;20470;-81
2021/12/16 04:21:11;;;;;;;34.03;15.67;;;7.40;99.90;;;;;;4154861;28;20471;-80
2021/12/16 04:23:14;;;;;;;32.40;14.77;;;7.40;99.90;;;;;;4154269;28;20477;-80
2021/12/16 04:25:20;;;;;;;31.97;15.10;;;7.40;99.90;;;;;;4154057;28;20898;-81
2021/12/16 04:27:22;;;;;;;33.50;15.73;;;7.40;99.90;;;;;;4148624;28;20893;-81
2021/12/16 04:29:25;;;;;;;32.87;16.27;;;7.50;99.90;;;;;;4148119;28;20478;-81
2021/12/16 04:31:29;;;;;;;35.80;16.63;;;7.50;99.90;;;;;;4154077;28;20457;-80
2021/12/16 04:33:31;;;;;;;35.00;16.13;;;7.50;99.90;;;;;;4153707;28;20490;-81
2021/12/16 04:35:33;;;;;;;34.20;15.50;;;7.40;99.90;;;;;;4154025;28;20461;-81
2021/12/16 04:37:35;;;;;;;37.37;16.97;;;7.50;99.90;;;;;;4138157;28;20516;-81
2021/12/16 04:39:39;;;;;;;35.27;15.93;;;7.50;99.90;;;;;;4152787;28;20880;-81
2021/12/16 04:41:42;;;;;;;33.07;15.90;;;7.50;99.90;;;;;;4146995;28;20500;-80
2021/12/16 04:43:48;;;;;;;33.03;16.07;;;7.50;99.90;;;;;;4152277;28;20497;-80
2021/12/16 04:45:50;;;;;;;32.67;15.03;;;7.50;99.90;;;;;;4142352;28;20474;-81
2021/12/16 04:47:54;;;;;;;34.80;16.67;;;7.40;99.90;;;;;;4155474;28;20454;-81
2021/12/16 04:49:56;;;;;;;39.60;16.10;;;7.50;99.90;;;;;;4153635;28;20462;-80
2021/12/16 04:52:00;;;;;;;37.87;16.97;;;7.50;99.90;;;;;;4149959;28;21009;-80
2021/12/16 04:54:03;;;;;;;33.80;16.23;;;7.50;99.90;;;;;;4139723;28;20475;-80
2021/12/16 04:56:07;;;;;;;37.40;17.13;;;7.50;99.90;;;;;;4147654;28;20739;-80
2021/12/16 04:58:09;;;;;;;37.03;16.53;;;7.50;99.90;;;;;;4154829;28;20456;-81
2021/12/16 05:00:14;;;;;;;41.87;18.03;;;7.50;99.90;;;;;;4152303;28;20926;-80
2021/12/16 05:02:18;;;;;;;35.90;16.57;;;7.50;99.90;;;;;;4145657;28;20458;-81
2021/12/16 05:04:21;;;;;;;37.70;16.60;;;7.40;99.90;;;;;;4144614;28;20465;-81
2021/12/16 05:06:23;;;;;;;38.63;17.50;;;7.40;99.90;;;;;;4139962;28;20463;-80
2021/12/16 05:08:26;;;;;;;38.27;17.17;;;7.50;99.90;;;;;;4146365;28;20469;-81
2021/12/16 05:10:27;;;;;;;34.70;16.20;;;7.40;99.90;;;;;;4148996;28;20470;-81
2021/12/16 05:12:33;;;;;;;38.50;16.67;;;7.40;99.90;;;;;;4139319;28;20519;-81
2021/12/16 05:14:35;;;;;;;35.00;16.60;;;7.40;99.90;;;;;;4139987;28;20968;-80
2021/12/16 05:16:37;;;;;;;36.70;16.73;;;7.40;99.90;;;;;;4138805;28;20474;-80
2021/12/16 05:18:39;;;;;;;36.53;16.53;;;7.40;99.90;;;;;;4145716;28;20516;-79
2021/12/16 05:20:45;;;;;;;40.33;16.70;;;7.40;99.90;;;;;;4143728;28;20951;-80
2021/12/16 05:25:16;;;;;;;34.97;15.60;;;7.40;99.90;;;;;;4153600;28;21069;-80
2021/12/16 05:27:19;;;;;;;32.47;16.07;;;7.40;99.90;;;;;;4154066;28;20449;-81
2021/12/16 05:29:23;;;;;;;32.67;15.57;;;7.40;99.90;;;;;;4151426;28;20482;-82
2021/12/16 05:31:27;;;;;;;32.97;15.50;;;7.40;99.90;;;;;;4153213;28;20821;-81
2021/12/16 05:33:29;;;;;;;31.37;15.87;;;7.40;99.90;;;;;;4152285;28;20492;-82
2021/12/16 05:35:32;;;;;;;33.83;16.00;;;7.40;99.90;;;;;;4153122;28;20441;-81
2021/12/16 05:37:35;;;;;;;31.33;15.60;;;7.40;99.90;;;;;;4153437;28;20458;-80
2021/12/16 05:39:36;;;;;;;31.63;15.63;;;7.40;99.90;;;;;;4152387;28;20469;-80
2021/12/16 05:41:39;;;;;;;29.43;14.43;;;7.40;99.90;;;;;;4146109;28;20524;-81
2021/12/16 05:43:41;;;;;;;33.00;15.33;;;7.40;99.90;;;;;;4146903;28;20548;-79
2021/12/16 05:45:44;;;;;;;34.93;15.90;;;7.40;99.90;;;;;;4141161;28;20508;-81
2021/12/16 05:47:46;;;;;;;35.43;15.90;;;7.40;99.90;;;;;;4137656;28;20548;-81
2021/12/16 05:49:48;;;;;;;35.63;16.30;;;7.40;99.90;;;;;;4150103;28;20495;-81
2021/12/16 05:51:51;;;;;;;31.83;14.90;;;7.50;99.90;;;;;;4153224;28;20477;-81
2021/12/16 05:53:55;;;;;;;36.90;16.63;;;7.40;99.90;;;;;;4154468;28;20481;-81
2021/12/16 05:55:59;;;;;;;34.07;14.90;;;7.40;99.90;;;;;;4154895;28;20516;-81
2021/12/16 05:58:03;;;;;;;31.43;14.27;;;7.40;99.90;;;;;;4146500;28;20478;-81
2021/12/16 06:00:12;;;;;;;32.60;15.47;;;7.40;99.90;;;;;;4145745;28;20492;-80
2021/12/16 06:02:14;;;;;;;39.17;16.07;;;7.30;99.90;;;;;;4149530;28;20461;-82
2021/12/16 06:04:16;;;;;;;36.07;15.90;;;7.40;99.90;;;;;;4147503;28;20492;-81
2021/12/16 06:06:18;;;;;;;34.93;16.43;;;7.40;99.90;;;;;;4148114;28;20454;-81
2021/12/16 06:08:21;;;;;;;37.30;16.70;;;7.40;99.90;;;;;;4147344;28;20523;-81
2021/12/16 06:11:01;;;;;;;36.43;16.70;;;7.30;99.90;;;;;;4143584;28;20470;-78
2021/12/16 06:12:59;;;;;;;34.67;16.23;;;7.40;99.90;;;;;;4145365;28;20481;-81
2021/12/16 06:15:16;;;;;;;35.37;16.23;;;7.30;99.90;;;;;;4138341;28;20949;-81
2021/12/16 06:26:46;;;;;;;34.33;16.43;;;7.40;99.90;;;;;;4140719;28;20877;-81
2021/12/16 06:28:48;;;;;;;31.07;15.83;;;7.40;99.90;;;;;;4149303;28;20483;-84
2021/12/16 06:30:50;;;;;;;39.77;17.60;;;7.40;99.90;;;;;;4148534;28;20882;-79
2021/12/16 06:32:52;;;;;;;37.27;17.67;;;7.40;99.90;;;;;;4145441;28;20974;-79
2021/12/16 06:34:55;;;;;;;36.20;16.20;;;7.40;99.90;;;;;;4145344;28;20472;-81
2021/12/16 06:36:57;;;;;;;32.87;16.20;;;7.40;99.90;;;;;;4154103;28;20464;-82
2021/12/16 06:38:59;;;;;;;38.60;16.93;;;7.40;99.90;;;;;;4162825;28;20449;-82
2021/12/16 06:41:01;;;;;;;39.73;17.80;;;7.40;99.90;;;;;;4157361;28;20508;-81
2021/12/16 06:45:14;;;;;;;40.50;17.73;;;7.40;99.90;;;;;;4127517;28;21018;-79
2021/12/16 06:47:20;;;;;;;39.87;17.87;;;7.40;99.90;;;;;;4120504;28;21431;-78
2021/12/16 06:49:23;;;;;;;40.67;18.50;;;7.40;99.90;;;;;;4123628;28;20469;-79
2021/12/16 06:51:36;;;;;;;38.10;18.07;;;7.40;99.90;;;;;;4123489;28;20485;-78
2021/12/16 06:53:48;;;;;;;38.93;17.57;;;7.40;99.90;;;;;;4125266;28;20972;-78
2021/12/16 06:55:57;;;;;;;40.37;17.67;;;7.40;99.90;;;;;;4122270;28;20486;-79
2021/12/16 06:58:10;;;;;;;43.23;17.47;;;7.40;99.90;;;;;;4124686;28;20568;-78
2021/12/16 07:00:18;;;;;;;37.10;17.13;;;7.40;99.90;;;;;;4123603;28;20461;-79
2021/12/16 07:02:38;;;;;;;38.00;16.83;;;7.40;99.90;;;;;;4125696;28;20971;-78
2021/12/16 07:04:43;;;;;;;36.97;17.23;;;7.50;99.90;;;;;;4123916;28;21004;-78
2021/12/16 07:06:45;;;;;;;38.27;16.87;;;7.50;99.90;;;;;;4120482;28;20485;-79
2021/12/16 07:08:48;;;;;;;37.27;16.73;;;7.50;99.90;;;;;;4122917;28;20467;-78
2021/12/16 07:10:53;;;;;;;41.20;16.73;;;7.50;99.90;;;;;;4121837;28;21017;-79
2021/12/16 07:12:57;;;;;;;40.50;17.83;;;7.50;99.90;;;;;;4124059;28;20785;-78
2021/12/16 07:14:58;;;;;;;42.07;18.27;;;7.50;99.90;;;;;;4121156;28;20494;-79
2021/12/16 07:17:05;;;;;;;41.43;18.17;;;7.50;99.90;;;;;;4124891;28;20489;-79
2021/12/16 07:19:07;;;;;;;41.70;18.20;;;7.50;99.90;;;;;;4115439;28;20903;-79
2021/12/16 07:21:09;;;;;;;43.20;18.70;;;7.50;99.90;;;;;;4116540;28;20479;-79
2021/12/16 07:23:12;;;;;;;44.13;18.97;;;7.50;99.90;;;;;;4122502;28;20839;-79
2021/12/16 07:25:14;;;;;;;38.73;17.33;;;7.50;99.90;;;;;;4116088;28;20475;-79
2021/12/16 07:27:15;;;;;;;41.97;17.30;;;7.50;99.90;;;;;;4120435;28;21037;-79
2021/12/16 07:29:17;;;;;;;39.03;17.47;;;7.50;99.90;;;;;;4118290;28;20471;-79
2021/12/16 07:31:19;;;;;;;45.53;18.40;;;7.50;99.90;;;;;;4119719;28;20479;-78
2021/12/16 07:33:22;;;;;;;41.43;18.57;;;7.50;99.90;;;;;;4121112;28;20541;-78
2021/12/16 07:35:27;;;;;;;38.43;17.73;;;7.50;99.90;;;;;;4121845;28;21233;-78
2021/12/16 07:37:29;;;;;;;40.70;17.87;;;7.50;99.90;;;;;;4121360;28;20459;-79
2021/12/16 07:39:37;;;;;;;39.80;17.83;;;7.50;99.90;;;;;;4121306;28;20513;-79
2021/12/16 07:41:41;;;;;;;41.83;18.97;;;7.50;99.90;;;;;;4121614;28;20505;-79
2021/12/16 07:43:55;;;;;;;42.20;17.77;;;7.50;99.90;;;;;;4124284;28;20499;-78
2021/12/16 07:45:57;;;;;;;39.63;17.43;;;7.60;99.90;;;;;;4123179;28;20479;-78
2021/12/16 07:47:59;;;;;;;38.90;17.57;;;7.50;99.90;;;;;;4119183;28;20497;-79
2021/12/16 07:50:03;;;;;;;42.90;18.53;;;7.50;99.90;;;;;;4122946;28;20936;-79
2021/12/16 07:52:07;;;;;;;43.80;18.60;;;7.50;99.90;;;;;;4123932;28;20459;-78
2021/12/16 07:54:11;;;;;;;39.53;17.40;;;7.50;99.90;;;;;;4123681;28;20499;-79
2021/12/16 07:56:13;;;;;;;40.93;17.73;;;7.60;99.90;;;;;;4123632;28;20499;-78
2021/12/16 07:58:15;;;;;;;38.87;17.80;;;7.50;99.90;;;;;;4122039;28;20595;-78
2021/12/16 08:00:19;;;;;;;44.70;18.77;;;7.50;99.90;;;;;;4122081;28;20999;-79
2021/12/16 08:02:21;;;;;;;39.37;18.10;;;7.60;99.90;;;;;;4123486;28;20469;-78
2021/12/16 08:04:28;;;;;;;37.27;17.17;;;7.60;99.90;;;;;;4121259;28;20553;-79
2021/12/16 08:06:33;;;;;;;44.23;19.27;;;7.60;99.90;;;;;;4122307;28;21032;-78
2021/12/16 08:08:36;;;;;;;39.27;18.43;;;7.60;99.90;;;;;;4124625;28;20475;-78
2021/12/16 08:10:38;;;;;;;39.27;17.83;;;7.60;99.90;;;;;;4123412;28;20459;-78
2021/12/16 08:12:40;;;;;;;42.33;18.70;;;7.60;99.90;;;;;;4121111;28;20478;-78
2021/12/16 08:14:44;;;;;;;41.63;17.80;;;7.60;99.90;;;;;;4120144;28;21223;-79
2021/12/16 08:16:47;;;;;;;46.13;18.43;;;7.50;99.90;;;;;;4122800;28;20912;-78
2021/12/16 08:18:48;;;;;;;43.13;18.83;;;7.60;99.90;;;;;;4123978;28;20498;-78
2021/12/16 08:20:50;;;;;;;47.67;20.67;;;7.60;99.90;;;;;;4123595;28;20548;-79
2021/12/16 08:22:56;;;;;;;40.30;18.83;;;7.60;99.90;;;;;;4124317;28;20459;-79
2021/12/16 08:24:58;;;;;;;41.87;18.37;;;7.50;99.90;;;;;;4123389;28;20905;-78
2021/12/16 08:27:00;;;;;;;44.10;19.10;;;7.50;99.90;;;;;;4122547;28;20478;-79
2021/12/16 08:29:04;;;;;;;47.53;19.53;;;7.50;99.90;;;;;;4122952;28;20474;-78
2021/12/16 08:31:07;;;;;;;42.17;18.83;;;7.50;99.90;;;;;;4121648;28;20520;-78
2021/12/16 08:33:11;;;;;;;46.27;19.67;;;7.50;99.90;;;;;;4125085;28;20529;-78
2021/12/16 08:35:13;;;;;;;48.10;20.07;;;7.60;99.90;;;;;;4122949;28;20478;-79
2021/12/16 08:37:15;;;;;;;46.83;19.20;;;7.50;99.90;;;;;;4122316;28;20564;-78
2021/12/16 08:39:19;;;;;;;43.63;18.60;;;7.50;99.90;;;;;;4125092;28;20698;-78
2021/12/16 08:41:24;;;;;;;48.00;19.47;;;7.50;99.90;;;;;;4124180;28;20483;-78
2021/12/16 08:43:26;;;;;;;46.23;18.57;;;7.50;99.90;;;;;;4124278;28;20478;-78
2021/12/16 08:45:31;;;;;;;46.47;19.40;;;7.50;99.90;;;;;;4122737;28;20464;-78
2021/12/16 08:47:33;;;;;;;45.17;19.60;;;7.60;99.90;;;;;;4121955;28;20517;-78
2021/12/16 08:49:36;;;;;;;44.67;18.67;;;7.60;99.90;;;;;;4123308;28;20474;-78
2021/12/16 08:51:43;;;;;;;49.20;20.13;;;7.60;99.90;;;;;;4123401;28;20460;-78
2021/12/16 08:53:45;;;;;;;46.07;20.13;;;7.60;99.90;;;;;;4126620;28;21062;-78
2021/12/16 08:55:49;;;;;;;48.37;20.13;;;7.60;99.90;;;;;;4123383;28;20596;-78
2021/12/16 08:57:53;;;;;;;44.60;19.07;;;7.70;99.90;;;;;;4126759;28;20544;-79
2021/12/16 08:59:54;;;;;;;38.70;18.23;;;7.70;99.90;;;;;;4124785;28;20497;-78
2021/12/16 09:01:58;;;;;;;43.33;18.93;;;7.70;99.90;;;;;;4124712;28;20475;-78
2021/12/16 09:04:00;;;;;;;46.40;19.40;;;7.70;99.90;;;;;;4125056;28;20887;-78
2021/12/16 09:06:02;;;;;;;42.43;17.90;;;7.70;99.90;;;;;;4123138;28;20894;-79
2021/12/16 09:08:05;;;;;;;41.33;17.70;;;7.70;99.90;;;;;;4125710;28;20565;-78
2021/12/16 09:10:10;;;;;;;38.73;17.50;;;7.70;99.90;;;;;;4123400;28;20553;-78
2021/12/16 09:12:47;;;;;;;43.13;18.53;;;7.80;99.90;;;;;;4122409;28;20474;-78
2021/12/16 09:14:48;;;;;;;47.73;19.30;;;7.80;99.90;;;;;;4124261;28;20512;-78
2021/12/16 09:16:50;;;;;;;39.50;18.23;;;7.70;99.90;;;;;;4122415;28;20475;-78
2021/12/16 09:18:53;;;;;;;42.43;18.43;;;7.80;99.90;;;;;;4123694;28;20476;-78
2021/12/16 09:20:56;;;;;;;45.30;19.60;;;7.80;99.90;;;;;;4123825;28;20981;-78
2021/12/16 09:22:59;;;;;;;39.03;17.10;;;7.80;99.90;;;;;;4125509;28;20456;-78
2021/12/16 09:25:00;;;;;;;39.83;18.23;;;7.70;99.90;;;;;;4127759;28;20458;-78
2021/12/16 09:27:02;;;;;;;41.73;17.87;;;7.90;99.90;;;;;;4126607;28;21125;-78
2021/12/16 09:29:05;;;;;;;40.83;18.17;;;7.80;99.90;;;;;;4121300;28;20516;-78
2021/12/16 09:31:10;;;;;;;42.43;17.40;;;7.80;99.90;;;;;;4123887;28;20537;-78
2021/12/16 09:33:16;;;;;;;39.70;18.23;;;7.70;99.90;;;;;;4124283;28;20459;-78
2021/12/16 09:35:19;;;;;;;47.03;19.03;;;7.70;99.90;;;;;;4124713;28;20471;-78
2021/12/16 09:37:20;;;;;;;40.97;17.33;;;7.70;99.90;;;;;;4123065;28;20533;-78
2021/12/16 09:39:25;;;;;;;43.30;18.20;;;7.70;99.90;;;;;;4122067;28;20533;-78
2021/12/16 09:41:28;;;;;;;45.57;18.40;;;7.60;99.90;;;;;;4121026;28;20479;-78
2021/12/16 09:43:33;;;;;;;46.20;19.13;;;7.60;99.90;;;;;;4123633;28;20489;-78
2021/12/16 09:45:36;;;;;;;44.90;17.73;;;7.60;99.90;;;;;;4121615;28;20614;-78
2021/12/16 09:47:38;;;;;;;44.70;18.90;;;7.60;99.90;;;;;;4122863;28;20458;-81
2021/12/16 09:49:40;;;;;;;43.17;17.60;;;7.60;99.90;;;;;;4124972;28;20470;-78
2021/12/16 09:51:45;;;;;;;46.43;18.33;;;7.50;99.90;;;;;;4124893;28;21223;-78
2021/12/16 09:53:46;;;;;;;41.20;16.90;;;7.60;99.90;;;;;;4125923;28;20530;-78
2021/12/16 09:55:57;;;;;;;45.20;18.70;;;7.60;99.90;;;;;;4125831;28;20471;-79
2021/12/16 09:57:59;;;;;;;40.93;18.23;;;7.60;99.90;;;;;;4123783;28;20478;-78
2021/12/16 10:00:01;;;;;;;41.33;17.07;;;7.60;99.90;;;;;;4122212;28;20507;-79
2021/12/16 10:02:12;;;;;;;43.93;17.13;;;7.50;99.90;;;;;;4119189;28;20940;-78
2021/12/16 10:04:20;;;;;;;42.50;18.03;;;7.60;99.90;;;;;;4120570;28;20856;-79
2021/12/16 10:06:21;;;;;;;42.77;18.10;;;7.60;99.90;;;;;;4124866;28;20461;-78
2021/12/16 10:08:23;;;;;;;39.93;17.13;;;7.60;99.90;;;;;;4126745;28;20466;-79
2021/12/16 10:10:27;;;;;;;45.63;17.57;;;7.60;99.90;;;;;;4126550;28;20457;-78
2021/12/16 10:12:34;;;;;;;39.73;16.80;;;7.60;99.90;;;;;;4125976;28;20482;-79
2021/12/16 10:14:58;;;;;;;42.03;17.50;;;7.60;99.90;;;;;;4125156;28;20498;-78
2021/12/16 10:19:23;;;;;;;39.87;16.33;;;7.60;99.90;;;;;;4121037;28;20493;-78
2021/12/16 10:21:27;;;;;;;39.50;16.00;;;7.60;99.90;;;;;;4125047;28;20513;-79
2021/12/16 10:23:33;;;;;;;37.00;16.63;;;7.60;99.90;;;;;;4122534;28;20700;-79
2021/12/16 10:25:40;;;;;;;37.70;16.77;;;7.60;99.90;;;;;;4125371;28;20887;-79
2021/12/16 10:27:53;;;;;;;42.87;16.80;;;7.60;99.90;;;;;;4124713;28;20469;-79
2021/12/16 10:29:59;;;;;;;43.30;16.17;;;7.60;99.90;;;;;;4122780;28;20478;-78
2021/12/16 10:32:00;;;;;;;38.43;17.07;;;7.70;99.90;;;;;;4122341;28;20892;-78
2021/12/16 10:34:04;;;;;;;39.80;16.93;;;7.70;99.90;;;;;;4125254;28;20508;-78
2021/12/16 10:36:20;;;;;;;36.70;15.67;;;7.70;99.90;;;;;;4125345;28;20517;-79
2021/12/16 10:38:22;;;;;;;42.83;18.27;;;7.70;99.90;;;;;;4122438;28;20509;-78
2021/12/16 10:40:36;;;;;;;41.50;17.67;;;7.70;99.90;;;;;;4124880;28;20471;-78
2021/12/16 10:42:44;;;;;;;44.27;18.90;;;7.70;99.90;;;;;;4123577;28;20489;-78
2021/12/16 10:44:46;;;;;;;43.93;17.47;;;7.70;99.90;;;;;;4125290;28;20494;-79
2021/12/16 10:46:50;;;;;;;41.37;16.77;;;7.70;99.90;;;;;;4122624;28;20478;-78
2021/12/16 10:48:56;;;;;;;50.03;17.83;;;7.70;99.90;;;;;;4122760;28;20466;-78
2021/12/16 10:51:09;;;;;;;44.23;17.77;;;7.70;99.90;;;;;;4122316;28;20470;-78
2021/12/16 10:53:12;;;;;;;45.33;18.03;;;7.60;99.90;;;;;;4124393;28;20476;-78
2021/12/16 10:55:13;;;;;;;41.33;17.50;;;7.70;99.90;;;;;;4124119;28;20499;-80
2021/12/16 10:57:17;;;;;;;39.67;16.60;;;7.70;99.90;;;;;;4124314;28;20915;-80
2021/12/16 10:59:22;;;;;;;44.23;17.30;;;7.70;99.90;;;;;;4124668;28;20481;-80
2021/12/16 11:02:01;;;;;;;43.10;17.03;;;7.70;99.90;;;;;;4121982;28;21122;-80
2021/12/16 11:04:04;;;;;;;42.67;16.73;;;7.70;99.90;;;;;;4113585;28;21103;-80
2021/12/16 11:06:27;;;;;;;41.07;17.10;;;7.70;99.90;;;;;;4123257;28;20470;-80
2021/12/16 11:08:30;;;;;;;39.00;16.27;;;7.70;99.90;;;;;;4125786;28;20508;-79
2021/12/16 11:10:34;;;;;;;37.60;15.73;;;7.70;99.90;;;;;;4124559;28;20470;-80
2021/12/16 11:12:43;;;;;;;44.77;17.47;;;7.70;99.90;;;;;;4124221;28;20480;-78
2021/12/16 11:14:48;;;;;;;45.00;17.50;;;7.70;99.90;;;;;;4122450;28;20506;-81
2021/12/16 11:16:58;;;;;;;38.23;16.43;;;7.70;99.90;;;;;;4125687;28;20514;-80
2021/12/16 11:19:00;;;;;;;37.27;16.00;;;7.70;99.90;;;;;;4125144;28;20443;-79
2021/12/16 11:21:05;;;;;;;40.20;15.93;;;7.70;99.90;;;;;;4118732;28;20545;-80
2021/12/16 11:23:10;;;;;;;39.60;15.53;;;7.70;99.90;;;;;;4125304;28;20804;-80
2021/12/16 11:25:21;;;;;;;41.13;16.23;;;7.80;99.90;;;;;;4125070;28;20940;-80
2021/12/16 11:27:27;;;;;;;48.47;18.03;;;7.80;99.90;;;;;;4120122;28;20519;-78
2021/12/16 11:29:30;;;;;;;44.70;18.60;;;7.80;99.90;;;;;;4123048;28;20475;-80
2021/12/16 11:31:33;;;;;;;43.33;18.27;;;7.70;99.90;;;;;;4123856;28;21250;-80
2021/12/16 11:33:39;;;;;;;44.30;16.43;;;7.80;99.90;;;;;;4122197;28;20526;-79
2021/12/16 11:35:45;;;;;;;41.50;16.67;;;7.80;99.90;;;;;;4124340;28;20455;-80
2021/12/16 11:37:47;;;;;;;42.23;17.20;;;7.80;99.90;;;;;;4125086;28;20514;-80
2021/12/16 11:39:49;;;;;;;44.57;17.17;;;7.90;99.90;;;;;;4123523;28;20632;-81
2021/12/16 11:41:56;;;;;;;46.07;17.73;;;7.90;99.90;;;;;;4123131;28;20460;-79
2021/12/16 11:44:17;;;;;;;47.50;18.80;;;7.90;99.90;;;;;;4123355;28;20490;-80
2021/12/16 11:46:24;;;;;;;49.03;18.70;;;8.00;99.90;;;;;;4125827;28;20795;-79
2021/12/16 11:48:33;;;;;;;39.80;17.30;;;7.90;99.90;;;;;;4121334;28;20459;-80
2021/12/16 11:50:40;;;;;;;45.97;18.43;;;7.90;99.90;;;;;;4126433;28;20533;-79
2021/12/16 11:52:41;;;;;;;48.13;18.40;;;7.90;99.90;;;;;;4126299;28;20479;-79
2021/12/16 11:54:47;;;;;;;46.63;19.13;;;7.90;99.90;;;;;;4125391;28;20505;-78
2021/12/16 11:56:53;;;;;;;42.40;17.77;;;7.90;99.90;;;;;;4126094;28;20475;-79
2021/12/16 11:58:56;;;;;;;42.57;17.30;;;7.90;99.90;;;;;;4121885;28;20831;-79
2021/12/16 12:00:58;;;;;;;43.17;16.87;;;8.00;99.90;;;;;;4121850;28;20524;-79
2021/12/16 12:03:03;;;;;;;43.53;17.97;;;8.00;99.90;;;;;;4123559;28;20550;-80
2021/12/16 12:05:20;;;;;;;48.27;19.43;;;7.90;99.90;;;;;;4122315;28;20753;-77
2021/12/16 12:07:21;;;;;;;44.17;18.13;;;7.90;99.90;;;;;;4120088;28;20471;-79
2021/12/16 12:09:34;;;;;;;48.90;18.63;;;7.90;99.90;;;;;;4122647;28;20937;-79
2021/12/16 12:11:40;;;;;;;45.00;19.73;;;7.90;99.90;;;;;;4122154;28;20472;-77
2021/12/16 12:13:47;;;;;;;46.37;19.60;;;7.90;99.90;;;;;;4123540;28;20493;-78
2021/12/16 12:15:55;;;;;;;50.77;20.87;;;7.90;99.90;;;;;;4122288;28;21094;-79
2021/12/16 12:17:57;;;;;;;50.03;19.23;;;7.90;99.90;;;;;;4123272;28;20465;-79
2021/12/16 12:19:59;;;;;;;49.60;18.87;;;7.90;99.90;;;;;;4122738;28;20866;-80
2021/12/16 12:22:02;;;;;;;45.40;18.57;;;7.90;99.90;;;;;;4120965;28;20498;-77
2021/12/16 12:24:08;;;;;;;48.70;19.47;;;7.90;99.90;;;;;;4122695;28;20556;-79
2021/12/16 12:26:12;;;;;;;52.10;20.30;;;7.90;99.90;;;;;;4121792;28;20501;-78